Aviation Digital Data Service (ADDS)

Output produced by METARs form (1007 UTC 07 December 2022)
found at http://aviationweather.gov/metar/data/
 
METAR text: KSFF 071003Z AUTO 24003KT 2 1/2SM BR OVC005 M03/M05 A3013 RMK AO2 CIG 002V006 T10331050
Conditions at: KSFF (SPOKANE/FELTS , WA, US) observed 1003 UTC 07 December 2022
Temperature: -3.3°C (26°F)
Dewpoint: -5.0°C (23°F) [RH = 88%]
Pressure (altimeter): 30.13 inches Hg (1020.4 mb)
Winds: from the WSW (240 degrees) at 3 MPH (3 knots; 1.5 m/s)
Visibility: 2.50 miles (4.02 km)
Ceiling: 500 feet AGL
Clouds: overcast cloud deck at 500 feet AGL
Weather: BR  (mist)

METAR text: KSFF 070953Z AUTO 00000KT 2SM BR OVC003 M03/M05 A3013 RMK AO2 CIG 002V007 SLP225 I1000 T10331050
Conditions at: KSFF (SPOKANE/FELTS , WA, US) observed 0953 UTC 07 December 2022
Temperature: -3.3°C (26°F)
Dewpoint: -5.0°C (23°F) [RH = 88%]
Pressure (altimeter): 30.13 inches Hg (1020.4 mb)
[Sea-level pressure: 1022.5 mb]
Winds: calm
Visibility: 2.00 miles (3.22 km)
Ceiling: 300 feet AGL
Clouds: overcast cloud deck at 300 feet AGL
Weather: BR  (mist)

METAR text: KSFF 070939Z AUTO 22003KT 2SM BR OVC002 M03/M05 A3013 RMK AO2 CIG 002V006 I1000 T10331050
Conditions at: KSFF (SPOKANE/FELTS , WA, US) observed 0939 UTC 07 December 2022
Temperature: -3.3°C (26°F)
Dewpoint: -5.0°C (23°F) [RH = 88%]
Pressure (altimeter): 30.13 inches Hg (1020.4 mb)
Winds: from the SW (220 degrees) at 3 MPH (3 knots; 1.5 m/s)
Visibility: 2.00 miles (3.22 km)
Ceiling: 200 feet AGL
Clouds: overcast cloud deck at 200 feet AGL
Weather: BR  (mist)

METAR text: KSFF 070911Z AUTO 00000KT 1 3/4SM BR OVC002 M03/M05 A3013 RMK AO2 T10331050
Conditions at: KSFF (SPOKANE/FELTS , WA, US) observed 0911 UTC 07 December 2022
Temperature: -3.3°C (26°F)
Dewpoint: -5.0°C (23°F) [RH = 88%]
Pressure (altimeter): 30.13 inches Hg (1020.4 mb)
Winds: calm
Visibility: 1.75 miles (2.82 km)
Ceiling: 200 feet AGL
Clouds: overcast cloud deck at 200 feet AGL
Weather: BR  (mist)

Forecast for: KSFF (SPOKANE/FELTS , WA, US)
Text: KSFF 070827Z 0708/0806 00000KT 1 1/2SM BR OVC003
Forecast period: 0800 to 1100 UTC 07 December 2022
Forecast type: FROM: standard forecast or significant change
Winds: calm
Visibility: 1.50 miles (2.41 km)
Ceiling: 300 feet AGL
Clouds: overcast cloud deck at 300 feet AGL
Weather: BR  (mist)
Text: FM071100 00000KT 3/4SM -FZDZ OVC002
Forecast period: 1100 to 1800 UTC 07 December 2022
Forecast type: FROM: standard forecast or significant change
Winds: calm
Visibility: 0.75 miles (1.21 km)
Ceiling: 200 feet AGL
Clouds: overcast cloud deck at 200 feet AGL
Weather: -FZDZ  (light freezing drizzle)
Text: FM071800 00000KT 3SM BR OVC005
Forecast period: 1800 to 2000 UTC 07 December 2022
Forecast type: FROM: standard forecast or significant change
Winds: calm
Visibility: 3 miles (5 km)
Ceiling: 500 feet AGL
Clouds: overcast cloud deck at 500 feet AGL
Weather: BR  (mist)
Text: FM072000 VRB03KT P6SM OVC011
Forecast period: 2000 UTC 07 December 2022 to 0300 UTC 08 December 2022
Forecast type: FROM: standard forecast or significant change
Winds: variable direction winds at 3 MPH (3 knots; 1.5 m/s)
Visibility: 6 or more miles (10+ km)
Ceiling: 1100 feet AGL
Clouds: overcast cloud deck at 1100 feet AGL
Weather: no significant weather forecast for this period
Text: FM080300 00000KT P6SM OVC009
Forecast period: 0300 to 0600 UTC 08 December 2022
Forecast type: FROM: standard forecast or significant change
Winds: calm
Visibility: 6 or more miles (10+ km)
Ceiling: 900 feet AGL
Clouds: overcast cloud deck at 900 feet AGL
Weather: no significant weather forecast for this period